sensor_id;sensor_type;location;lat;lon;timestamp;P1;durP1;ratioP1;P2;durP2;ratioP2
11151;SDS011;5630;49.342;10.802;2022-09-13T00:00:36;8.40;;;7.53;;
11151;SDS011;5630;49.342;10.802;2022-09-13T00:03:02;8.70;;;7.90;;
11151;SDS011;5630;49.342;10.802;2022-09-13T00:05:28;8.43;;;7.63;;
11151;SDS011;5630;49.342;10.802;2022-09-13T00:07:54;8.20;;;7.50;;
11151;SDS011;5630;49.342;10.802;2022-09-13T00:10:19;8.07;;;7.37;;
11151;SDS011;5630;49.342;10.802;2022-09-13T00:12:46;9.53;;;7.80;;
11151;SDS011;5630;49.342;10.802;2022-09-13T00:15:12;8.80;;;8.00;;
11151;SDS011;5630;49.342;10.802;2022-09-13T00:17:38;8.67;;;7.77;;
11151;SDS011;5630;49.342;10.802;2022-09-13T00:20:04;9.23;;;8.33;;
11151;SDS011;5630;49.342;10.802;2022-09-13T00:22:30;10.60;;;8.00;;
11151;SDS011;5630;49.342;10.802;2022-09-13T00:24:56;8.77;;;7.93;;
11151;SDS011;5630;49.342;10.802;2022-09-13T00:27:21;8.67;;;7.87;;
11151;SDS011;5630;49.342;10.802;2022-09-13T00:29:47;9.40;;;8.37;;
11151;SDS011;5630;49.342;10.802;2022-09-13T00:32:12;10.80;;;7.83;;
11151;SDS011;5630;49.342;10.802;2022-09-13T00:34:38;9.67;;;8.10;;
11151;SDS011;5630;49.342;10.802;2022-09-13T00:37:04;8.77;;;7.83;;
11151;SDS011;5630;49.342;10.802;2022-09-13T00:39:29;8.60;;;7.70;;
11151;SDS011;5630;49.342;10.802;2022-09-13T00:41:55;9.20;;;8.27;;
11151;SDS011;5630;49.342;10.802;2022-09-13T00:47:14;10.10;;;8.10;;
11151;SDS011;5630;49.342;10.802;2022-09-13T00:49:45;8.67;;;7.87;;
11151;SDS011;5630;49.342;10.802;2022-09-13T00:52:15;10.20;;;8.13;;
11151;SDS011;5630;49.342;10.802;2022-09-13T00:54:45;9.10;;;8.20;;
11151;SDS011;5630;49.342;10.802;2022-09-13T00:57:15;8.73;;;7.83;;
11151;SDS011;5630;49.342;10.802;2022-09-13T01:02:52;10.50;;;8.03;;
11151;SDS011;5630;49.342;10.802;2022-09-13T01:05:29;8.90;;;8.03;;
11151;SDS011;5630;49.342;10.802;2022-09-13T01:08:00;8.57;;;7.77;;
11151;SDS011;5630;49.342;10.802;2022-09-13T01:10:27;9.23;;;8.30;;
11151;SDS011;5630;49.342;10.802;2022-09-13T01:12:59;8.60;;;7.70;;
11151;SDS011;5630;49.342;10.802;2022-09-13T01:15:39;9.70;;;7.70;;
11151;SDS011;5630;49.342;10.802;2022-09-13T01:18:06;8.63;;;7.73;;
11151;SDS011;5630;49.342;10.802;2022-09-13T01:23:22;8.03;;;7.27;;
11151;SDS011;5630;49.342;10.802;2022-09-13T01:45:11;8.50;;;7.67;;
11151;SDS011;5630;49.342;10.802;2022-09-13T01:47:44;9.13;;;7.00;;
11151;SDS011;5630;49.342;10.802;2022-09-13T01:50:33;10.23;;;7.07;;
11151;SDS011;5630;49.342;10.802;2022-09-13T01:55:50;8.80;;;7.90;;
11151;SDS011;5630;49.342;10.802;2022-09-13T01:58:38;8.67;;;7.80;;
11151;SDS011;5630;49.342;10.802;2022-09-13T02:01:18;8.73;;;6.93;;
11151;SDS011;5630;49.342;10.802;2022-09-13T02:06:25;7.93;;;7.13;;
11151;SDS011;5630;49.342;10.802;2022-09-13T02:08:57;10.43;;;7.73;;
11151;SDS011;5630;49.342;10.802;2022-09-13T02:11:26;7.80;;;7.10;;
11151;SDS011;5630;49.342;10.802;2022-09-13T02:13:57;7.77;;;6.77;;
11151;SDS011;5630;49.342;10.802;2022-09-13T02:16:58;7.90;;;7.20;;
11151;SDS011;5630;49.342;10.802;2022-09-13T02:19:32;8.13;;;7.43;;
11151;SDS011;5630;49.342;10.802;2022-09-13T02:22:03;7.70;;;7.00;;
11151;SDS011;5630;49.342;10.802;2022-09-13T02:24:32;8.10;;;7.40;;
11151;SDS011;5630;49.342;10.802;2022-09-13T02:27:08;8.67;;;7.87;;
11151;SDS011;5630;49.342;10.802;2022-09-13T02:29:39;9.00;;;8.10;;
11151;SDS011;5630;49.342;10.802;2022-09-13T02:32:11;7.57;;;6.87;;
11151;SDS011;5630;49.342;10.802;2022-09-13T02:35:02;8.17;;;7.07;;
11151;SDS011;5630;49.342;10.802;2022-09-13T02:37:33;9.17;;;8.10;;
11151;SDS011;5630;49.342;10.802;2022-09-13T02:40:03;7.87;;;7.17;;
11151;SDS011;5630;49.342;10.802;2022-09-13T02:42:42;7.73;;;7.00;;
11151;SDS011;5630;49.342;10.802;2022-09-13T02:45:12;8.03;;;7.23;;
11151;SDS011;5630;49.342;10.802;2022-09-13T02:53:35;8.33;;;7.53;;
11151;SDS011;5630;49.342;10.802;2022-09-13T02:58:46;8.27;;;7.53;;
11151;SDS011;5630;49.342;10.802;2022-09-13T03:01:25;9.43;;;8.10;;
11151;SDS011;5630;49.342;10.802;2022-09-13T03:03:51;8.83;;;6.97;;
11151;SDS011;5630;49.342;10.802;2022-09-13T03:06:25;7.77;;;7.07;;
11151;SDS011;5630;49.342;10.802;2022-09-13T03:08:52;8.20;;;7.37;;
11151;SDS011;5630;49.342;10.802;2022-09-13T03:11:52;8.10;;;7.27;;
11151;SDS011;5630;49.342;10.802;2022-09-13T03:25:50;7.50;;;6.70;;
11151;SDS011;5630;49.342;10.802;2022-09-13T03:28:26;9.00;;;8.10;;
11151;SDS011;5630;49.342;10.802;2022-09-13T03:31:29;8.37;;;7.50;;
11151;SDS011;5630;49.342;10.802;2022-09-13T03:34:11;7.87;;;7.17;;
11151;SDS011;5630;49.342;10.802;2022-09-13T03:40:02;7.70;;;6.97;;
11151;SDS011;5630;49.342;10.802;2022-09-13T03:45:12;8.33;;;7.53;;
11151;SDS011;5630;49.342;10.802;2022-09-13T03:47:41;8.43;;;7.60;;
11151;SDS011;5630;49.342;10.802;2022-09-13T03:50:12;10.27;;;7.87;;
11151;SDS011;5630;49.342;10.802;2022-09-13T03:52:39;8.07;;;7.27;;
11151;SDS011;5630;49.342;10.802;2022-09-13T03:55:05;8.30;;;7.20;;
11151;SDS011;5630;49.342;10.802;2022-09-13T03:57:31;11.23;;;7.47;;
11151;SDS011;5630;49.342;10.802;2022-09-13T03:59:56;8.60;;;7.47;;
11151;SDS011;5630;49.342;10.802;2022-09-13T04:02:23;8.60;;;7.80;;
11151;SDS011;5630;49.342;10.802;2022-09-13T04:04:49;8.27;;;7.47;;
11151;SDS011;5630;49.342;10.802;2022-09-13T04:07:16;10.00;;;7.57;;
11151;SDS011;5630;49.342;10.802;2022-09-13T04:09:43;9.27;;;7.50;;
11151;SDS011;5630;49.342;10.802;2022-09-13T04:12:09;8.27;;;7.03;;
11151;SDS011;5630;49.342;10.802;2022-09-13T04:14:35;8.07;;;7.23;;
11151;SDS011;5630;49.342;10.802;2022-09-13T04:17:01;8.10;;;7.30;;
11151;SDS011;5630;49.342;10.802;2022-09-13T04:19:26;10.40;;;7.13;;
11151;SDS011;5630;49.342;10.802;2022-09-13T04:21:52;7.17;;;6.57;;
11151;SDS011;5630;49.342;10.802;2022-09-13T04:24:20;7.73;;;7.03;;
11151;SDS011;5630;49.342;10.802;2022-09-13T04:26:49;7.63;;;6.93;;
11151;SDS011;5630;49.342;10.802;2022-09-13T04:29:15;8.30;;;7.27;;
11151;SDS011;5630;49.342;10.802;2022-09-13T04:31:45;7.73;;;7.03;;
11151;SDS011;5630;49.342;10.802;2022-09-13T04:34:11;9.93;;;7.47;;
11151;SDS011;5630;49.342;10.802;2022-09-13T04:36:36;8.77;;;7.27;;
11151;SDS011;5630;49.342;10.802;2022-09-13T04:39:03;10.57;;;7.80;;
11151;SDS011;5630;49.342;10.802;2022-09-13T04:41:28;8.27;;;7.10;;
11151;SDS011;5630;49.342;10.802;2022-09-13T04:43:54;10.77;;;8.40;;
11151;SDS011;5630;49.342;10.802;2022-09-13T04:46:20;12.83;;;7.83;;
11151;SDS011;5630;49.342;10.802;2022-09-13T04:48:49;8.30;;;7.60;;
11151;SDS011;5630;49.342;10.802;2022-09-13T04:51:15;7.23;;;6.53;;
11151;SDS011;5630;49.342;10.802;2022-09-13T04:53:42;8.13;;;7.33;;
11151;SDS011;5630;49.342;10.802;2022-09-13T04:56:10;8.53;;;7.40;;
11151;SDS011;5630;49.342;10.802;2022-09-13T04:58:39;8.30;;;7.23;;
11151;SDS011;5630;49.342;10.802;2022-09-13T05:01:05;7.83;;;7.13;;
11151;SDS011;5630;49.342;10.802;2022-09-13T05:03:34;7.77;;;7.07;;
11151;SDS011;5630;49.342;10.802;2022-09-13T05:08:35;9.27;;;7.27;;
11151;SDS011;5630;49.342;10.802;2022-09-13T05:11:01;9.37;;;7.60;;
11151;SDS011;5630;49.342;10.802;2022-09-13T05:13:27;8.17;;;7.37;;
11151;SDS011;5630;49.342;10.802;2022-09-13T05:15:53;8.53;;;7.63;;
11151;SDS011;5630;49.342;10.802;2022-09-13T05:18:20;8.27;;;7.10;;
11151;SDS011;5630;49.342;10.802;2022-09-13T05:20:46;7.73;;;6.93;;
11151;SDS011;5630;49.342;10.802;2022-09-13T05:23:12;7.30;;;6.60;;
11151;SDS011;5630;49.342;10.802;2022-09-13T05:25:37;9.23;;;5.40;;
11151;SDS011;5630;49.342;10.802;2022-09-13T05:28:03;8.97;;;7.13;;
11151;SDS011;5630;49.342;10.802;2022-09-13T05:30:28;8.17;;;7.33;;
11151;SDS011;5630;49.342;10.802;2022-09-13T05:32:54;8.10;;;7.23;;
11151;SDS011;5630;49.342;10.802;2022-09-13T05:35:21;8.13;;;7.37;;
11151;SDS011;5630;49.342;10.802;2022-09-13T05:37:48;8.67;;;6.73;;
11151;SDS011;5630;49.342;10.802;2022-09-13T05:40:13;7.93;;;7.13;;
11151;SDS011;5630;49.342;10.802;2022-09-13T05:42:39;7.50;;;6.70;;
11151;SDS011;5630;49.342;10.802;2022-09-13T05:45:05;7.60;;;6.90;;
11151;SDS011;5630;49.342;10.802;2022-09-13T05:47:31;6.70;;;6.17;;
11151;SDS011;5630;49.342;10.802;2022-09-13T05:49:56;7.33;;;6.67;;
11151;SDS011;5630;49.342;10.802;2022-09-13T05:52:22;7.40;;;6.70;;
11151;SDS011;5630;49.342;10.802;2022-09-13T05:54:48;8.30;;;6.70;;
11151;SDS011;5630;49.342;10.802;2022-09-13T05:57:13;6.03;;;5.50;;
11151;SDS011;5630;49.342;10.802;2022-09-13T05:59:39;7.83;;;7.07;;
11151;SDS011;5630;49.342;10.802;2022-09-13T06:02:05;8.00;;;7.20;;
11151;SDS011;5630;49.342;10.802;2022-09-13T06:04:34;8.13;;;7.43;;
11151;SDS011;5630;49.342;10.802;2022-09-13T06:06:59;8.70;;;6.93;;
11151;SDS011;5630;49.342;10.802;2022-09-13T06:09:25;8.37;;;7.67;;
11151;SDS011;5630;49.342;10.802;2022-09-13T06:11:51;8.27;;;6.87;;
11151;SDS011;5630;49.342;10.802;2022-09-13T06:14:16;9.20;;;8.30;;
11151;SDS011;5630;49.342;10.802;2022-09-13T06:16:42;8.77;;;7.87;;
11151;SDS011;5630;49.342;10.802;2022-09-13T06:19:08;8.40;;;7.57;;
11151;SDS011;5630;49.342;10.802;2022-09-13T06:21:33;7.80;;;7.10;;
11151;SDS011;5630;49.342;10.802;2022-09-13T06:23:59;8.57;;;7.77;;
11151;SDS011;5630;49.342;10.802;2022-09-13T06:26:25;10.77;;;8.23;;
11151;SDS011;5630;49.342;10.802;2022-09-13T06:28:53;8.77;;;7.87;;
11151;SDS011;5630;49.342;10.802;2022-09-13T06:31:21;7.90;;;7.20;;
11151;SDS011;5630;49.342;10.802;2022-09-13T06:33:54;9.93;;;7.43;;
11151;SDS011;5630;49.342;10.802;2022-09-13T06:36:21;9.00;;;8.10;;
11151;SDS011;5630;49.342;10.802;2022-09-13T06:38:47;6.23;;;5.30;;
11151;SDS011;5630;49.342;10.802;2022-09-13T06:41:14;6.07;;;5.50;;
11151;SDS011;5630;49.342;10.802;2022-09-13T06:43:45;5.80;;;5.13;;
11151;SDS011;5630;49.342;10.802;2022-09-13T06:46:15;6.63;;;4.97;;
11151;SDS011;5630;49.342;10.802;2022-09-13T06:48:42;5.00;;;4.60;;
11151;SDS011;5630;49.342;10.802;2022-09-13T06:51:13;6.00;;;4.93;;
11151;SDS011;5630;49.342;10.802;2022-09-13T06:53:40;6.03;;;5.50;;
11151;SDS011;5630;49.342;10.802;2022-09-13T06:56:10;8.50;;;4.60;;
11151;SDS011;5630;49.342;10.802;2022-09-13T06:58:48;4.67;;;4.27;;
11151;SDS011;5630;49.342;10.802;2022-09-13T07:03:46;5.27;;;4.40;;
11151;SDS011;5630;49.342;10.802;2022-09-13T07:06:17;4.70;;;4.27;;
11151;SDS011;5630;49.342;10.802;2022-09-13T07:08:45;5.20;;;4.70;;
11151;SDS011;5630;49.342;10.802;2022-09-13T07:11:12;5.03;;;4.53;;
11151;SDS011;5630;49.342;10.802;2022-09-13T07:13:39;7.10;;;6.40;;
11151;SDS011;5630;49.342;10.802;2022-09-13T07:16:09;6.60;;;6.00;;
11151;SDS011;5630;49.342;10.802;2022-09-13T07:18:36;5.87;;;5.37;;
11151;SDS011;5630;49.342;10.802;2022-09-13T07:21:02;8.50;;;5.47;;
11151;SDS011;5630;49.342;10.802;2022-09-13T07:23:33;5.77;;;5.27;;
11151;SDS011;5630;49.342;10.802;2022-09-13T07:26:00;6.33;;;5.77;;
11151;SDS011;5630;49.342;10.802;2022-09-13T07:28:27;7.10;;;6.40;;
11151;SDS011;5630;49.342;10.802;2022-09-13T07:30:54;7.50;;;6.03;;
11151;SDS011;5630;49.342;10.802;2022-09-13T07:33:19;5.90;;;5.40;;
11151;SDS011;5630;49.342;10.802;2022-09-13T07:35:45;6.07;;;5.47;;
11151;SDS011;5630;49.342;10.802;2022-09-13T07:38:10;6.20;;;5.60;;
11151;SDS011;5630;49.342;10.802;2022-09-13T07:40:36;5.50;;;5.00;;
11151;SDS011;5630;49.342;10.802;2022-09-13T07:43:02;5.97;;;5.40;;
11151;SDS011;5630;49.342;10.802;2022-09-13T07:45:27;6.73;;;5.80;;
11151;SDS011;5630;49.342;10.802;2022-09-13T07:47:53;6.57;;;5.57;;
11151;SDS011;5630;49.342;10.802;2022-09-13T07:50:19;5.47;;;4.93;;
11151;SDS011;5630;49.342;10.802;2022-09-13T07:52:45;5.40;;;4.90;;
11151;SDS011;5630;49.342;10.802;2022-09-13T07:55:10;5.20;;;4.70;;
11151;SDS011;5630;49.342;10.802;2022-09-13T07:57:36;6.27;;;5.67;;
11151;SDS011;5630;49.342;10.802;2022-09-13T08:00:02;5.50;;;5.00;;
11151;SDS011;5630;49.342;10.802;2022-09-13T08:02:29;4.90;;;4.50;;
11151;SDS011;5630;49.342;10.802;2022-09-13T08:04:55;5.13;;;4.70;;
11151;SDS011;5630;49.342;10.802;2022-09-13T08:07:20;5.13;;;4.63;;
11151;SDS011;5630;49.342;10.802;2022-09-13T08:09:46;6.03;;;5.10;;
11151;SDS011;5630;49.342;10.802;2022-09-13T08:12:11;4.90;;;4.50;;
11151;SDS011;5630;49.342;10.802;2022-09-13T08:14:37;4.90;;;4.50;;
11151;SDS011;5630;49.342;10.802;2022-09-13T08:17:02;5.37;;;4.87;;
11151;SDS011;5630;49.342;10.802;2022-09-13T08:19:28;6.47;;;5.10;;
11151;SDS011;5630;49.342;10.802;2022-09-13T08:21:53;5.23;;;4.70;;
11151;SDS011;5630;49.342;10.802;2022-09-13T08:24:19;4.60;;;4.20;;
11151;SDS011;5630;49.342;10.802;2022-09-13T08:26:45;8.80;;;4.47;;
11151;SDS011;5630;49.342;10.802;2022-09-13T08:29:12;5.53;;;4.10;;
11151;SDS011;5630;49.342;10.802;2022-09-13T08:31:38;4.23;;;3.93;;
11151;SDS011;5630;49.342;10.802;2022-09-13T08:34:06;5.57;;;4.43;;
11151;SDS011;5630;49.342;10.802;2022-09-13T08:36:35;4.80;;;4.30;;
11151;SDS011;5630;49.342;10.802;2022-09-13T08:39:00;4.43;;;3.70;;
11151;SDS011;5630;49.342;10.802;2022-09-13T08:41:37;3.93;;;3.63;;
11151;SDS011;5630;49.342;10.802;2022-09-13T08:44:25;6.07;;;4.40;;
11151;SDS011;5630;49.342;10.802;2022-09-13T08:52:37;4.10;;;3.70;;
11151;SDS011;5630;49.342;10.802;2022-09-13T09:07:05;7.77;;;3.60;;
11151;SDS011;5630;49.342;10.802;2022-09-13T09:10:38;3.90;;;3.60;;
11151;SDS011;5630;49.342;10.802;2022-09-13T09:12:56;3.73;;;3.30;;
11151;SDS011;5630;49.342;10.802;2022-09-13T09:15:26;5.93;;;3.30;;
11151;SDS011;5630;49.342;10.802;2022-09-13T09:18:05;3.60;;;3.30;;
11151;SDS011;5630;49.342;10.802;2022-09-13T09:20:43;4.43;;;3.17;;
11151;SDS011;5630;49.342;10.802;2022-09-13T09:23:13;5.70;;;3.63;;
11151;SDS011;5630;49.342;10.802;2022-09-13T09:25:44;6.13;;;3.07;;
11151;SDS011;5630;49.342;10.802;2022-09-13T09:28:11;3.10;;;2.80;;
11151;SDS011;5630;49.342;10.802;2022-09-13T09:30:44;5.67;;;3.03;;
11151;SDS011;5630;49.342;10.802;2022-09-13T09:36:15;3.80;;;3.03;;
11151;SDS011;5630;49.342;10.802;2022-09-13T09:38:43;4.57;;;2.93;;
11151;SDS011;5630;49.342;10.802;2022-09-13T09:41:11;4.50;;;3.47;;
11151;SDS011;5630;49.342;10.802;2022-09-13T09:46:46;3.60;;;3.30;;
11151;SDS011;5630;49.342;10.802;2022-09-13T09:49:25;3.77;;;2.93;;
11151;SDS011;5630;49.342;10.802;2022-09-13T09:52:33;4.33;;;2.87;;
11151;SDS011;5630;49.342;10.802;2022-09-13T09:58:04;8.00;;;2.90;;
11151;SDS011;5630;49.342;10.802;2022-09-13T10:00:34;7.67;;;3.00;;
11151;SDS011;5630;49.342;10.802;2022-09-13T10:03:17;6.67;;;3.77;;
11151;SDS011;5630;49.342;10.802;2022-09-13T10:05:46;3.07;;;2.83;;
11151;SDS011;5630;49.342;10.802;2022-09-13T10:08:25;7.10;;;2.70;;
11151;SDS011;5630;49.342;10.802;2022-09-13T10:10:57;5.23;;;3.30;;
11151;SDS011;5630;49.342;10.802;2022-09-13T10:13:24;4.33;;;3.20;;
11151;SDS011;5630;49.342;10.802;2022-09-13T10:16:04;5.57;;;2.73;;
11151;SDS011;5630;49.342;10.802;2022-09-13T10:18:35;3.00;;;2.70;;
11151;SDS011;5630;49.342;10.802;2022-09-13T10:21:05;4.33;;;2.93;;
11151;SDS011;5630;49.342;10.802;2022-09-13T10:23:44;3.20;;;2.70;;
11151;SDS011;5630;49.342;10.802;2022-09-13T10:26:12;3.13;;;2.83;;
11151;SDS011;5630;49.342;10.802;2022-09-13T10:28:46;5.07;;;3.00;;
11151;SDS011;5630;49.342;10.802;2022-09-13T10:31:25;3.17;;;2.87;;
11151;SDS011;5630;49.342;10.802;2022-09-13T10:36:31;5.63;;;2.70;;
11151;SDS011;5630;49.342;10.802;2022-09-13T10:41:26;3.27;;;2.60;;
11151;SDS011;5630;49.342;10.802;2022-09-13T10:43:56;3.17;;;2.87;;
11151;SDS011;5630;49.342;10.802;2022-09-13T10:46:27;5.50;;;3.13;;
11151;SDS011;5630;49.342;10.802;2022-09-13T10:48:58;6.90;;;3.60;;
11151;SDS011;5630;49.342;10.802;2022-09-13T10:51:34;4.37;;;3.47;;
11151;SDS011;5630;49.342;10.802;2022-09-13T10:54:19;3.90;;;3.13;;
11151;SDS011;5630;49.342;10.802;2022-09-13T10:56:47;3.50;;;3.10;;
11151;SDS011;5630;49.342;10.802;2022-09-13T10:59:27;3.23;;;2.93;;
11151;SDS011;5630;49.342;10.802;2022-09-13T11:08:06;4.63;;;3.63;;
11151;SDS011;5630;49.342;10.802;2022-09-13T11:10:53;8.53;;;3.83;;
11151;SDS011;5630;49.342;10.802;2022-09-13T11:18:54;4.00;;;3.47;;
11151;SDS011;5630;49.342;10.802;2022-09-13T11:29:45;5.13;;;3.07;;
11151;SDS011;5630;49.342;10.802;2022-09-13T11:38:15;3.17;;;2.87;;
11151;SDS011;5630;49.342;10.802;2022-09-13T11:51:25;4.90;;;4.40;;
11151;SDS011;5630;49.342;10.802;2022-09-13T11:54:25;5.10;;;4.20;;
11151;SDS011;5630;49.342;10.802;2022-09-13T11:57:09;6.47;;;4.27;;
11151;SDS011;5630;49.342;10.802;2022-09-13T11:59:50;4.50;;;4.10;;
11151;SDS011;5630;49.342;10.802;2022-09-13T12:02:42;7.07;;;4.63;;
11151;SDS011;5630;49.342;10.802;2022-09-13T12:05:20;7.60;;;4.93;;
11151;SDS011;5630;49.342;10.802;2022-09-13T12:07:50;6.97;;;5.43;;
11151;SDS011;5630;49.342;10.802;2022-09-13T12:12:50;5.63;;;5.13;;
11151;SDS011;5630;49.342;10.802;2022-09-13T12:18:29;6.23;;;5.43;;
11151;SDS011;5630;49.342;10.802;2022-09-13T12:20:51;4.90;;;4.50;;
11151;SDS011;5630;49.342;10.802;2022-09-13T12:26:25;6.07;;;5.40;;
11151;SDS011;5630;49.342;10.802;2022-09-13T12:29:18;10.53;;;5.30;;
11151;SDS011;5630;49.342;10.802;2022-09-13T12:31:49;6.33;;;4.80;;
11151;SDS011;5630;49.342;10.802;2022-09-13T12:34:21;5.33;;;4.50;;
11151;SDS011;5630;49.342;10.802;2022-09-13T12:37:06;6.53;;;4.27;;
11151;SDS011;5630;49.342;10.802;2022-09-13T12:40:36;3.90;;;3.50;;
11151;SDS011;5630;49.342;10.802;2022-09-13T12:43:02;5.07;;;3.47;;
11151;SDS011;5630;49.342;10.802;2022-09-13T12:48:27;3.87;;;3.43;;
11151;SDS011;5630;49.342;10.802;2022-09-13T12:51:29;3.30;;;2.63;;
11151;SDS011;5630;49.342;10.802;2022-09-13T12:57:01;4.90;;;3.10;;
11151;SDS011;5630;49.342;10.802;2022-09-13T13:02:33;3.47;;;3.10;;
11151;SDS011;5630;49.342;10.802;2022-09-13T13:05:05;3.90;;;2.90;;
11151;SDS011;5630;49.342;10.802;2022-09-13T13:07:53;4.30;;;2.80;;
11151;SDS011;5630;49.342;10.802;2022-09-13T13:10:35;3.00;;;2.70;;
11151;SDS011;5630;49.342;10.802;2022-09-13T13:13:12;3.10;;;2.80;;
11151;SDS011;5630;49.342;10.802;2022-09-13T13:18:21;4.10;;;2.70;;
11151;SDS011;5630;49.342;10.802;2022-09-13T13:21:20;6.27;;;2.90;;
11151;SDS011;5630;49.342;10.802;2022-09-13T13:23:47;3.57;;;3.27;;
11151;SDS011;5630;49.342;10.802;2022-09-13T13:31:37;3.43;;;3.10;;
11151;SDS011;5630;49.342;10.802;2022-09-13T13:36:30;3.67;;;3.10;;
11151;SDS011;5630;49.342;10.802;2022-09-13T13:39:03;5.00;;;2.90;;
11151;SDS011;5630;49.342;10.802;2022-09-13T13:44:01;4.53;;;3.10;;
11151;SDS011;5630;49.342;10.802;2022-09-13T13:46:43;3.47;;;3.10;;
11151;SDS011;5630;49.342;10.802;2022-09-13T13:52:49;4.40;;;3.20;;
11151;SDS011;5630;49.342;10.802;2022-09-13T13:55:03;4.33;;;3.10;;
11151;SDS011;5630;49.342;10.802;2022-09-13T13:57:59;3.50;;;3.20;;
11151;SDS011;5630;49.342;10.802;2022-09-13T14:00:28;3.30;;;2.90;;
11151;SDS011;5630;49.342;10.802;2022-09-13T14:21:31;7.03;;;3.40;;
11151;SDS011;5630;49.342;10.802;2022-09-13T14:24:16;7.23;;;2.80;;
11151;SDS011;5630;49.342;10.802;2022-09-13T14:26:43;4.23;;;3.13;;
11151;SDS011;5630;49.342;10.802;2022-09-13T14:29:12;3.83;;;2.90;;
11151;SDS011;5630;49.342;10.802;2022-09-13T14:31:44;3.53;;;2.73;;
11151;SDS011;5630;49.342;10.802;2022-09-13T14:34:25;6.27;;;3.13;;
11151;SDS011;5630;49.342;10.802;2022-09-13T14:36:54;5.20;;;2.63;;
11151;SDS011;5630;49.342;10.802;2022-09-13T14:39:24;4.20;;;2.67;;
11151;SDS011;5630;49.342;10.802;2022-09-13T14:42:01;3.33;;;3.03;;
11151;SDS011;5630;49.342;10.802;2022-09-13T14:44:27;3.57;;;2.97;;
11151;SDS011;5630;49.342;10.802;2022-09-13T14:47:15;3.57;;;3.27;;
11151;SDS011;5630;49.342;10.802;2022-09-13T14:49:43;3.57;;;3.10;;
11151;SDS011;5630;49.342;10.802;2022-09-13T14:52:15;4.20;;;3.13;;
11151;SDS011;5630;49.342;10.802;2022-09-13T14:54:53;3.70;;;3.40;;
11151;SDS011;5630;49.342;10.802;2022-09-13T14:59:53;3.80;;;3.50;;
11151;SDS011;5630;49.342;10.802;2022-09-13T15:02:23;4.37;;;3.97;;
11151;SDS011;5630;49.342;10.802;2022-09-13T15:04:52;4.23;;;3.70;;
11151;SDS011;5630;49.342;10.802;2022-09-13T15:07:30;6.20;;;4.03;;
11151;SDS011;5630;49.342;10.802;2022-09-13T15:13:15;5.93;;;4.40;;
11151;SDS011;5630;49.342;10.802;2022-09-13T15:15:40;4.40;;;3.83;;
11151;SDS011;5630;49.342;10.802;2022-09-13T15:20:48;6.73;;;4.10;;
11151;SDS011;5630;49.342;10.802;2022-09-13T15:23:16;4.30;;;3.90;;
11151;SDS011;5630;49.342;10.802;2022-09-13T15:25:52;4.20;;;3.80;;
11151;SDS011;5630;49.342;10.802;2022-09-13T15:28:19;3.37;;;3.03;;
11151;SDS011;5630;49.342;10.802;2022-09-13T15:30:47;3.97;;;3.00;;
11151;SDS011;5630;49.342;10.802;2022-09-13T15:33:16;5.10;;;3.47;;
11151;SDS011;5630;49.342;10.802;2022-09-13T15:35:43;4.30;;;3.43;;
11151;SDS011;5630;49.342;10.802;2022-09-13T15:40:43;4.53;;;3.60;;
11151;SDS011;5630;49.342;10.802;2022-09-13T15:43:10;5.23;;;4.07;;
11151;SDS011;5630;49.342;10.802;2022-09-13T15:45:36;5.87;;;4.10;;
11151;SDS011;5630;49.342;10.802;2022-09-13T15:48:02;4.13;;;3.70;;
11151;SDS011;5630;49.342;10.802;2022-09-13T15:50:29;7.43;;;3.80;;
11151;SDS011;5630;49.342;10.802;2022-09-13T15:52:57;5.20;;;4.53;;
11151;SDS011;5630;49.342;10.802;2022-09-13T15:55:24;3.93;;;3.63;;
11151;SDS011;5630;49.342;10.802;2022-09-13T15:57:51;5.17;;;4.37;;
11151;SDS011;5630;49.342;10.802;2022-09-13T16:00:19;6.53;;;4.47;;
11151;SDS011;5630;49.342;10.802;2022-09-13T16:02:51;7.53;;;4.37;;
11151;SDS011;5630;49.342;10.802;2022-09-13T16:05:17;4.90;;;4.40;;
11151;SDS011;5630;49.342;10.802;2022-09-13T16:07:43;6.10;;;4.00;;
11151;SDS011;5630;49.342;10.802;2022-09-13T16:10:14;6.50;;;4.13;;
11151;SDS011;5630;49.342;10.802;2022-09-13T16:12:42;7.13;;;4.10;;
11151;SDS011;5630;49.342;10.802;2022-09-13T16:15:08;7.13;;;4.27;;
11151;SDS011;5630;49.342;10.802;2022-09-13T16:17:34;5.17;;;4.60;;
11151;SDS011;5630;49.342;10.802;2022-09-13T16:19:59;6.50;;;4.30;;
11151;SDS011;5630;49.342;10.802;2022-09-13T16:22:25;7.83;;;4.50;;
11151;SDS011;5630;49.342;10.802;2022-09-13T16:24:50;6.00;;;4.57;;
11151;SDS011;5630;49.342;10.802;2022-09-13T16:27:16;9.07;;;4.40;;
11151;SDS011;5630;49.342;10.802;2022-09-13T16:29:43;5.30;;;4.47;;
11151;SDS011;5630;49.342;10.802;2022-09-13T16:32:09;5.43;;;4.20;;
11151;SDS011;5630;49.342;10.802;2022-09-13T16:34:35;4.43;;;4.10;;
11151;SDS011;5630;49.342;10.802;2022-09-13T16:37:01;6.53;;;4.37;;
11151;SDS011;5630;49.342;10.802;2022-09-13T16:39:26;5.17;;;4.27;;
11151;SDS011;5630;49.342;10.802;2022-09-13T16:41:52;5.03;;;4.40;;
11151;SDS011;5630;49.342;10.802;2022-09-13T16:44:17;7.20;;;4.20;;
11151;SDS011;5630;49.342;10.802;2022-09-13T16:46:43;5.10;;;4.40;;
11151;SDS011;5630;49.342;10.802;2022-09-13T16:49:09;8.40;;;4.40;;
11151;SDS011;5630;49.342;10.802;2022-09-13T16:51:35;5.53;;;4.23;;
11151;SDS011;5630;49.342;10.802;2022-09-13T16:54:01;6.50;;;4.57;;
11151;SDS011;5630;49.342;10.802;2022-09-13T16:56:27;5.90;;;4.63;;
11151;SDS011;5630;49.342;10.802;2022-09-13T16:58:54;7.03;;;4.30;;
11151;SDS011;5630;49.342;10.802;2022-09-13T17:01:24;4.53;;;4.13;;
11151;SDS011;5630;49.342;10.802;2022-09-13T17:03:51;4.97;;;4.23;;
11151;SDS011;5630;49.342;10.802;2022-09-13T17:06:18;4.90;;;4.50;;
11151;SDS011;5630;49.342;10.802;2022-09-13T17:08:45;6.97;;;4.50;;
11151;SDS011;5630;49.342;10.802;2022-09-13T17:11:15;6.00;;;4.90;;
11151;SDS011;5630;49.342;10.802;2022-09-13T17:13:42;5.50;;;4.77;;
11151;SDS011;5630;49.342;10.802;2022-09-13T17:16:19;6.97;;;4.67;;
11151;SDS011;5630;49.342;10.802;2022-09-13T17:18:52;6.20;;;4.67;;
11151;SDS011;5630;49.342;10.802;2022-09-13T17:21:21;5.37;;;4.83;;
11151;SDS011;5630;49.342;10.802;2022-09-13T17:23:47;6.20;;;5.03;;
11151;SDS011;5630;49.342;10.802;2022-09-13T17:26:13;5.63;;;5.00;;
11151;SDS011;5630;49.342;10.802;2022-09-13T17:28:39;6.80;;;5.13;;
11151;SDS011;5630;49.342;10.802;2022-09-13T17:31:04;7.80;;;5.40;;
11151;SDS011;5630;49.342;10.802;2022-09-13T17:33:30;7.83;;;4.90;;
11151;SDS011;5630;49.342;10.802;2022-09-13T17:36:03;6.90;;;6.27;;
11151;SDS011;5630;49.342;10.802;2022-09-13T17:38:31;11.03;;;10.03;;
11151;SDS011;5630;49.342;10.802;2022-09-13T17:41:18;10.43;;;9.30;;
11151;SDS011;5630;49.342;10.802;2022-09-13T17:43:43;9.00;;;8.03;;
11151;SDS011;5630;49.342;10.802;2022-09-13T17:48:40;8.83;;;6.80;;
11151;SDS011;5630;49.342;10.802;2022-09-13T17:51:07;7.20;;;6.50;;
11151;SDS011;5630;49.342;10.802;2022-09-13T17:53:38;7.30;;;6.60;;
11151;SDS011;5630;49.342;10.802;2022-09-13T17:56:06;10.13;;;7.17;;
11151;SDS011;5630;49.342;10.802;2022-09-13T17:58:32;14.00;;;11.10;;
11151;SDS011;5630;49.342;10.802;2022-09-13T18:01:02;15.60;;;13.67;;
11151;SDS011;5630;49.342;10.802;2022-09-13T18:03:30;16.03;;;14.13;;
11151;SDS011;5630;49.342;10.802;2022-09-13T18:05:56;15.20;;;13.60;;
11151;SDS011;5630;49.342;10.802;2022-09-13T18:08:24;17.63;;;14.07;;
11151;SDS011;5630;49.342;10.802;2022-09-13T18:10:50;18.70;;;14.73;;
11151;SDS011;5630;49.342;10.802;2022-09-13T18:13:16;16.43;;;14.63;;
11151;SDS011;5630;49.342;10.802;2022-09-13T18:15:41;15.07;;;13.23;;
11151;SDS011;5630;49.342;10.802;2022-09-13T18:18:07;15.37;;;12.93;;
11151;SDS011;5630;49.342;10.802;2022-09-13T18:20:33;13.23;;;11.93;;
11151;SDS011;5630;49.342;10.802;2022-09-13T18:22:58;14.13;;;12.47;;